sensor_id;sensor_type;location;lat;lon;timestamp;P1;durP1;ratioP1;P2;durP2;ratioP2
7169;SDS011;3626;42.656;23.312;2023-03-03T00:00:01;5.50;;;3.80;;
7169;SDS011;3626;42.656;23.312;2023-03-03T00:00:10;5.46;;;3.80;;
7169;SDS011;3626;42.656;23.312;2023-03-03T00:00:17;5.77;;;3.93;;
7169;SDS011;3626;42.656;23.312;2023-03-03T00:00:23;5.82;;;4.00;;
7169;SDS011;3626;42.656;23.312;2023-03-03T00:00:29;5.68;;;3.90;;
7169;SDS011;3626;42.656;23.312;2023-03-03T00:00:34;5.47;;;3.90;;
7169;SDS011;3626;42.656;23.312;2023-03-03T00:00:41;5.15;;;3.72;;
7169;SDS011;3626;42.656;23.312;2023-03-03T00:00:47;4.70;;;3.50;;
7169;SDS011;3626;42.656;23.312;2023-03-03T00:00:53;4.70;;;3.47;;
7169;SDS011;3626;42.656;23.312;2023-03-03T00:00:59;4.30;;;3.30;;
7169;SDS011;3626;42.656;23.312;2023-03-03T00:01:05;4.30;;;3.20;;
7169;SDS011;3626;42.656;23.312;2023-03-03T00:01:12;4.38;;;3.30;;
7169;SDS011;3626;42.656;23.312;2023-03-03T00:01:19;4.06;;;3.22;;
7169;SDS011;3626;42.656;23.312;2023-03-03T00:01:25;4.45;;;3.25;;
7169;SDS011;3626;42.656;23.312;2023-03-03T00:01:31;4.63;;;3.22;;
7169;SDS011;3626;42.656;23.312;2023-03-03T00:01:38;4.70;;;3.30;;
7169;SDS011;3626;42.656;23.312;2023-03-03T00:01:46;4.60;;;3.30;;
7169;SDS011;3626;42.656;23.312;2023-03-03T00:01:52;4.63;;;3.20;;
7169;SDS011;3626;42.656;23.312;2023-03-03T00:01:58;4.80;;;3.30;;
7169;SDS011;3626;42.656;23.312;2023-03-03T00:02:04;4.95;;;3.30;;
7169;SDS011;3626;42.656;23.312;2023-03-03T00:02:11;4.95;;;3.30;;
7169;SDS011;3626;42.656;23.312;2023-03-03T00:02:20;4.98;;;3.30;;
7169;SDS011;3626;42.656;23.312;2023-03-03T00:02:26;4.30;;;3.15;;
7169;SDS011;3626;42.656;23.312;2023-03-03T00:02:32;4.10;;;3.10;;
7169;SDS011;3626;42.656;23.312;2023-03-03T00:02:40;4.23;;;3.20;;
7169;SDS011;3626;42.656;23.312;2023-03-03T00:02:48;4.49;;;3.20;;
7169;SDS011;3626;42.656;23.312;2023-03-03T00:02:55;4.40;;;3.15;;
7169;SDS011;3626;42.656;23.312;2023-03-03T00:03:05;4.32;;;3.20;;
7169;SDS011;3626;42.656;23.312;2023-03-03T00:03:14;4.32;;;3.20;;
7169;SDS011;3626;42.656;23.312;2023-03-03T00:03:23;4.55;;;3.24;;
7169;SDS011;3626;42.656;23.312;2023-03-03T00:03:31;4.93;;;3.30;;
7169;SDS011;3626;42.656;23.312;2023-03-03T00:03:37;5.00;;;3.30;;
7169;SDS011;3626;42.656;23.312;2023-03-03T00:03:44;4.98;;;3.20;;
7169;SDS011;3626;42.656;23.312;2023-03-03T00:03:50;5.13;;;3.33;;
7169;SDS011;3626;42.656;23.312;2023-03-03T00:03:56;5.10;;;3.30;;
7169;SDS011;3626;42.656;23.312;2023-03-03T00:04:02;5.20;;;3.30;;
7169;SDS011;3626;42.656;23.312;2023-03-03T00:04:11;5.20;;;3.30;;
7169;SDS011;3626;42.656;23.312;2023-03-03T00:04:17;5.10;;;3.20;;
7169;SDS011;3626;42.656;23.312;2023-03-03T00:04:23;5.15;;;3.25;;
7169;SDS011;3626;42.656;23.312;2023-03-03T00:04:29;5.03;;;3.37;;
7169;SDS011;3626;42.656;23.312;2023-03-03T00:04:35;4.85;;;3.33;;
7169;SDS011;3626;42.656;23.312;2023-03-03T00:04:41;5.03;;;3.40;;
7169;SDS011;3626;42.656;23.312;2023-03-03T00:04:47;4.80;;;3.30;;
7169;SDS011;3626;42.656;23.312;2023-03-03T00:04:53;4.78;;;3.30;;
7169;SDS011;3626;42.656;23.312;2023-03-03T00:05:01;4.57;;;3.23;;
7169;SDS011;3626;42.656;23.312;2023-03-03T00:05:07;5.33;;;3.27;;
7169;SDS011;3626;42.656;23.312;2023-03-03T00:05:14;5.13;;;3.20;;
7169;SDS011;3626;42.656;23.312;2023-03-03T00:05:22;5.03;;;3.17;;
7169;SDS011;3626;42.656;23.312;2023-03-03T00:05:29;5.18;;;3.20;;
7169;SDS011;3626;42.656;23.312;2023-03-03T00:05:36;5.22;;;3.17;;
7169;SDS011;3626;42.656;23.312;2023-03-03T00:05:43;5.33;;;3.23;;
7169;SDS011;3626;42.656;23.312;2023-03-03T00:05:49;5.60;;;3.40;;
7169;SDS011;3626;42.656;23.312;2023-03-03T00:05:55;5.83;;;3.40;;
7169;SDS011;3626;42.656;23.312;2023-03-03T00:06:03;5.73;;;3.30;;
7169;SDS011;3626;42.656;23.312;2023-03-03T00:06:10;6.13;;;3.50;;
7169;SDS011;3626;42.656;23.312;2023-03-03T00:06:18;6.30;;;3.60;;
7169;SDS011;3626;42.656;23.312;2023-03-03T00:06:24;6.53;;;3.70;;
7169;SDS011;3626;42.656;23.312;2023-03-03T00:06:31;6.63;;;3.70;;
7169;SDS011;3626;42.656;23.312;2023-03-03T00:06:37;6.60;;;3.80;;
7169;SDS011;3626;42.656;23.312;2023-03-03T00:06:43;6.43;;;3.72;;
7169;SDS011;3626;42.656;23.312;2023-03-03T00:06:50;6.30;;;3.73;;
7169;SDS011;3626;42.656;23.312;2023-03-03T00:06:56;6.65;;;3.90;;
7169;SDS011;3626;42.656;23.312;2023-03-03T00:07:02;6.70;;;3.90;;
7169;SDS011;3626;42.656;23.312;2023-03-03T00:07:07;6.40;;;3.80;;
7169;SDS011;3626;42.656;23.312;2023-03-03T00:07:16;6.49;;;3.84;;
7169;SDS011;3626;42.656;23.312;2023-03-03T00:07:27;6.78;;;3.84;;
7169;SDS011;3626;42.656;23.312;2023-03-03T00:07:36;6.33;;;3.61;;
7169;SDS011;3626;42.656;23.312;2023-03-03T00:07:42;6.13;;;3.50;;
7169;SDS011;3626;42.656;23.312;2023-03-03T00:07:48;5.84;;;3.32;;
7169;SDS011;3626;42.656;23.312;2023-03-03T00:07:54;5.38;;;3.17;;
7169;SDS011;3626;42.656;23.312;2023-03-03T00:08:00;4.85;;;3.25;;
7169;SDS011;3626;42.656;23.312;2023-03-03T00:08:06;4.80;;;3.28;;
7169;SDS011;3626;42.656;23.312;2023-03-03T00:08:13;4.72;;;3.20;;
7169;SDS011;3626;42.656;23.312;2023-03-03T00:08:20;3.97;;;3.10;;
7169;SDS011;3626;42.656;23.312;2023-03-03T00:08:27;3.98;;;3.10;;
7169;SDS011;3626;42.656;23.312;2023-03-03T00:08:33;4.20;;;3.20;;
7169;SDS011;3626;42.656;23.312;2023-03-03T00:08:39;4.45;;;3.28;;
7169;SDS011;3626;42.656;23.312;2023-03-03T00:08:45;4.70;;;3.30;;
7169;SDS011;3626;42.656;23.312;2023-03-03T00:08:54;4.70;;;3.30;;
7169;SDS011;3626;42.656;23.312;2023-03-03T00:09:00;4.47;;;3.10;;
7169;SDS011;3626;42.656;23.312;2023-03-03T00:09:06;4.40;;;3.17;;
7169;SDS011;3626;42.656;23.312;2023-03-03T00:09:14;4.47;;;3.10;;
7169;SDS011;3626;42.656;23.312;2023-03-03T00:09:19;4.80;;;3.20;;
7169;SDS011;3626;42.656;23.312;2023-03-03T00:09:25;4.90;;;3.20;;
7169;SDS011;3626;42.656;23.312;2023-03-03T00:09:31;4.80;;;3.20;;
7169;SDS011;3626;42.656;23.312;2023-03-03T00:09:37;4.70;;;3.20;;
7169;SDS011;3626;42.656;23.312;2023-03-03T00:09:43;4.55;;;3.22;;
7169;SDS011;3626;42.656;23.312;2023-03-03T00:09:49;4.95;;;3.40;;
7169;SDS011;3626;42.656;23.312;2023-03-03T00:09:55;4.97;;;3.40;;
7169;SDS011;3626;42.656;23.312;2023-03-03T00:10:01;5.18;;;3.50;;
7169;SDS011;3626;42.656;23.312;2023-03-03T00:10:08;5.67;;;3.87;;
7169;SDS011;3626;42.656;23.312;2023-03-03T00:10:15;5.46;;;3.84;;
7169;SDS011;3626;42.656;23.312;2023-03-03T00:10:21;5.45;;;3.85;;
7169;SDS011;3626;42.656;23.312;2023-03-03T00:10:26;5.30;;;3.83;;
7169;SDS011;3626;42.656;23.312;2023-03-03T00:10:33;5.43;;;3.90;;
7169;SDS011;3626;42.656;23.312;2023-03-03T00:10:41;5.30;;;3.87;;
7169;SDS011;3626;42.656;23.312;2023-03-03T00:10:49;5.17;;;3.80;;
7169;SDS011;3626;42.656;23.312;2023-03-03T00:10:55;5.10;;;3.80;;
7169;SDS011;3626;42.656;23.312;2023-03-03T00:11:01;5.10;;;3.85;;
7169;SDS011;3626;42.656;23.312;2023-03-03T00:11:10;4.81;;;3.60;;
7169;SDS011;3626;42.656;23.312;2023-03-03T00:11:16;5.10;;;3.60;;
7169;SDS011;3626;42.656;23.312;2023-03-03T00:11:22;5.40;;;3.65;;
7169;SDS011;3626;42.656;23.312;2023-03-03T00:11:28;5.72;;;3.67;;
7169;SDS011;3626;42.656;23.312;2023-03-03T00:11:34;5.80;;;3.60;;
7169;SDS011;3626;42.656;23.312;2023-03-03T00:11:40;5.90;;;3.67;;
7169;SDS011;3626;42.656;23.312;2023-03-03T00:11:46;5.82;;;3.60;;
7169;SDS011;3626;42.656;23.312;2023-03-03T00:11:58;6.00;;;3.56;;
7169;SDS011;3626;42.656;23.312;2023-03-03T00:12:16;6.15;;;3.51;;
7169;SDS011;3626;42.656;23.312;2023-03-03T00:12:29;5.64;;;3.47;;
7169;SDS011;3626;42.656;23.312;2023-03-03T00:12:35;5.02;;;3.50;;
7169;SDS011;3626;42.656;23.312;2023-03-03T00:12:50;5.13;;;3.49;;
7169;SDS011;3626;42.656;23.312;2023-03-03T00:12:58;5.18;;;3.50;;
7169;SDS011;3626;42.656;23.312;2023-03-03T00:13:05;4.97;;;3.50;;
7169;SDS011;3626;42.656;23.312;2023-03-03T00:13:20;5.56;;;3.46;;
7169;SDS011;3626;42.656;23.312;2023-03-03T00:13:29;6.30;;;3.30;;
7169;SDS011;3626;42.656;23.312;2023-03-03T00:13:39;6.31;;;3.30;;
7169;SDS011;3626;42.656;23.312;2023-03-03T00:13:52;6.31;;;3.31;;
7169;SDS011;3626;42.656;23.312;2023-03-03T00:14:00;6.17;;;3.40;;
7169;SDS011;3626;42.656;23.312;2023-03-03T00:14:11;6.20;;;3.33;;
7169;SDS011;3626;42.656;23.312;2023-03-03T00:14:27;6.09;;;3.44;;
7169;SDS011;3626;42.656;23.312;2023-03-03T00:14:35;5.72;;;3.50;;
7169;SDS011;3626;42.656;23.312;2023-03-03T00:14:41;5.57;;;3.50;;
7169;SDS011;3626;42.656;23.312;2023-03-03T00:14:47;5.50;;;3.40;;
7169;SDS011;3626;42.656;23.312;2023-03-03T00:14:53;5.65;;;3.35;;
7169;SDS011;3626;42.656;23.312;2023-03-03T00:14:59;5.70;;;3.30;;
7169;SDS011;3626;42.656;23.312;2023-03-03T00:15:12;5.78;;;3.30;;
7169;SDS011;3626;42.656;23.312;2023-03-03T00:15:20;5.80;;;3.15;;
7169;SDS011;3626;42.656;23.312;2023-03-03T00:15:28;5.33;;;3.10;;
7169;SDS011;3626;42.656;23.312;2023-03-03T00:15:35;5.60;;;3.17;;
7169;SDS011;3626;42.656;23.312;2023-03-03T00:15:41;5.78;;;3.22;;
7169;SDS011;3626;42.656;23.312;2023-03-03T00:15:48;5.90;;;3.30;;
7169;SDS011;3626;42.656;23.312;2023-03-03T00:15:55;5.97;;;3.47;;
7169;SDS011;3626;42.656;23.312;2023-03-03T00:16:21;5.90;;;3.58;;
7169;SDS011;3626;42.656;23.312;2023-03-03T00:16:30;5.80;;;3.72;;
7169;SDS011;3626;42.656;23.312;2023-03-03T00:16:39;6.59;;;3.70;;
7169;SDS011;3626;42.656;23.312;2023-03-03T00:16:46;6.33;;;3.53;;
7169;SDS011;3626;42.656;23.312;2023-03-03T00:16:55;6.40;;;3.50;;
7169;SDS011;3626;42.656;23.312;2023-03-03T00:17:06;6.53;;;3.50;;
7169;SDS011;3626;42.656;23.312;2023-03-03T00:17:24;6.49;;;3.50;;
7169;SDS011;3626;42.656;23.312;2023-03-03T00:17:32;5.93;;;3.45;;
7169;SDS011;3626;42.656;23.312;2023-03-03T00:17:38;5.24;;;3.40;;
7169;SDS011;3626;42.656;23.312;2023-03-03T00:17:44;5.47;;;3.50;;
7169;SDS011;3626;42.656;23.312;2023-03-03T00:17:51;5.33;;;3.50;;
7169;SDS011;3626;42.656;23.312;2023-03-03T00:17:57;5.20;;;3.44;;
7169;SDS011;3626;42.656;23.312;2023-03-03T00:18:05;5.20;;;3.38;;
7169;SDS011;3626;42.656;23.312;2023-03-03T00:18:24;5.26;;;3.30;;
7169;SDS011;3626;42.656;23.312;2023-03-03T00:18:36;6.00;;;3.46;;
7169;SDS011;3626;42.656;23.312;2023-03-03T00:18:46;6.34;;;3.72;;
7169;SDS011;3626;42.656;23.312;2023-03-03T00:18:52;6.78;;;3.90;;
7169;SDS011;3626;42.656;23.312;2023-03-03T00:18:59;6.47;;;3.90;;
7169;SDS011;3626;42.656;23.312;2023-03-03T00:19:10;7.00;;;4.07;;
7169;SDS011;3626;42.656;23.312;2023-03-03T00:19:19;7.50;;;4.11;;
7169;SDS011;3626;42.656;23.312;2023-03-03T00:19:25;7.27;;;4.07;;
7169;SDS011;3626;42.656;23.312;2023-03-03T00:19:32;7.27;;;4.00;;
7169;SDS011;3626;42.656;23.312;2023-03-03T00:19:45;6.89;;;3.81;;
7169;SDS011;3626;42.656;23.312;2023-03-03T00:19:51;6.53;;;3.53;;
7169;SDS011;3626;42.656;23.312;2023-03-03T00:19:58;6.76;;;3.58;;
7169;SDS011;3626;42.656;23.312;2023-03-03T00:20:30;6.75;;;3.59;;
7169;SDS011;3626;42.656;23.312;2023-03-03T00:20:39;6.74;;;3.60;;
7169;SDS011;3626;42.656;23.312;2023-03-03T00:20:47;6.75;;;3.70;;
7169;SDS011;3626;42.656;23.312;2023-03-03T00:20:57;6.76;;;3.72;;
7169;SDS011;3626;42.656;23.312;2023-03-03T00:21:18;6.70;;;3.70;;
7169;SDS011;3626;42.656;23.312;2023-03-03T00:21:30;5.95;;;3.47;;
7169;SDS011;3626;42.656;23.312;2023-03-03T00:21:43;5.11;;;3.24;;
7169;SDS011;3626;42.656;23.312;2023-03-03T00:21:51;5.00;;;3.15;;
7169;SDS011;3626;42.656;23.312;2023-03-03T00:21:59;5.00;;;3.30;;
7169;SDS011;3626;42.656;23.312;2023-03-03T00:22:06;5.05;;;3.35;;
7169;SDS011;3626;42.656;23.312;2023-03-03T00:22:24;5.64;;;3.42;;
7169;SDS011;3626;42.656;23.312;2023-03-03T00:22:34;5.80;;;3.51;;
7169;SDS011;3626;42.656;23.312;2023-03-03T00:22:41;5.95;;;3.63;;
7169;SDS011;3626;42.656;23.312;2023-03-03T00:22:47;6.60;;;3.70;;
7169;SDS011;3626;42.656;23.312;2023-03-03T00:22:53;6.85;;;3.80;;
7169;SDS011;3626;42.656;23.312;2023-03-03T00:23:03;7.38;;;3.75;;
7169;SDS011;3626;42.656;23.312;2023-03-03T00:23:23;8.16;;;3.80;;
7169;SDS011;3626;42.656;23.312;2023-03-03T00:23:37;8.25;;;3.78;;
7169;SDS011;3626;42.656;23.312;2023-03-03T00:23:44;7.63;;;3.70;;
7169;SDS011;3626;42.656;23.312;2023-03-03T00:23:51;7.47;;;3.70;;
7169;SDS011;3626;42.656;23.312;2023-03-03T00:24:01;7.00;;;3.70;;
7169;SDS011;3626;42.656;23.312;2023-03-03T00:24:24;6.81;;;3.91;;
7169;SDS011;3626;42.656;23.312;2023-03-03T00:24:40;6.76;;;4.00;;
7169;SDS011;3626;42.656;23.312;2023-03-03T00:24:46;7.00;;;4.00;;
7169;SDS011;3626;42.656;23.312;2023-03-03T00:24:53;7.36;;;4.00;;
7169;SDS011;3626;42.656;23.312;2023-03-03T00:24:59;7.38;;;3.95;;
7169;SDS011;3626;42.656;23.312;2023-03-03T00:25:27;6.30;;;3.74;;
7169;SDS011;3626;42.656;23.312;2023-03-03T00:25:34;7.12;;;3.73;;
7169;SDS011;3626;42.656;23.312;2023-03-03T00:25:41;7.00;;;3.70;;
7169;SDS011;3626;42.656;23.312;2023-03-03T00:25:49;6.90;;;3.80;;
7169;SDS011;3626;42.656;23.312;2023-03-03T00:25:59;6.63;;;3.80;;
7169;SDS011;3626;42.656;23.312;2023-03-03T00:26:06;6.87;;;3.77;;
7169;SDS011;3626;42.656;23.312;2023-03-03T00:26:24;6.95;;;3.92;;
7169;SDS011;3626;42.656;23.312;2023-03-03T00:26:35;6.75;;;3.90;;
7169;SDS011;3626;42.656;23.312;2023-03-03T00:26:45;6.51;;;3.75;;
7169;SDS011;3626;42.656;23.312;2023-03-03T00:26:52;6.27;;;3.60;;
7169;SDS011;3626;42.656;23.312;2023-03-03T00:27:00;6.45;;;3.65;;
7169;SDS011;3626;42.656;23.312;2023-03-03T00:27:15;6.10;;;3.63;;
7169;SDS011;3626;42.656;23.312;2023-03-03T00:27:29;6.00;;;3.58;;
7169;SDS011;3626;42.656;23.312;2023-03-03T00:27:36;5.84;;;3.70;;
7169;SDS011;3626;42.656;23.312;2023-03-03T00:27:42;6.68;;;3.88;;
7169;SDS011;3626;42.656;23.312;2023-03-03T00:27:47;6.78;;;3.80;;
7169;SDS011;3626;42.656;23.312;2023-03-03T00:27:53;6.83;;;3.80;;
7169;SDS011;3626;42.656;23.312;2023-03-03T00:28:00;6.70;;;3.80;;
7169;SDS011;3626;42.656;23.312;2023-03-03T00:28:17;6.88;;;3.84;;
7169;SDS011;3626;42.656;23.312;2023-03-03T00:28:31;7.14;;;3.88;;
7169;SDS011;3626;42.656;23.312;2023-03-03T00:28:46;6.78;;;3.78;;
7169;SDS011;3626;42.656;23.312;2023-03-03T00:28:52;6.30;;;3.80;;
7169;SDS011;3626;42.656;23.312;2023-03-03T00:28:58;6.47;;;3.80;;
7169;SDS011;3626;42.656;23.312;2023-03-03T00:29:18;6.33;;;3.80;;
7169;SDS011;3626;42.656;23.312;2023-03-03T00:29:33;6.09;;;3.76;;
7169;SDS011;3626;42.656;23.312;2023-03-03T00:29:40;5.59;;;3.66;;
7169;SDS011;3626;42.656;23.312;2023-03-03T00:29:53;5.81;;;3.76;;
7169;SDS011;3626;42.656;23.312;2023-03-03T00:30:01;5.73;;;3.70;;
7169;SDS011;3626;42.656;23.312;2023-03-03T00:30:09;5.80;;;3.70;;
7169;SDS011;3626;42.656;23.312;2023-03-03T00:30:22;6.14;;;3.78;;
7169;SDS011;3626;42.656;23.312;2023-03-03T00:30:29;6.63;;;3.93;;
7169;SDS011;3626;42.656;23.312;2023-03-03T00:30:35;7.30;;;4.10;;
7169;SDS011;3626;42.656;23.312;2023-03-03T00:30:41;7.30;;;4.20;;
7169;SDS011;3626;42.656;23.312;2023-03-03T00:30:48;7.10;;;4.10;;
7169;SDS011;3626;42.656;23.312;2023-03-03T00:30:55;6.93;;;4.13;;
7169;SDS011;3626;42.656;23.312;2023-03-03T00:31:11;6.88;;;4.10;;
7169;SDS011;3626;42.656;23.312;2023-03-03T00:31:25;7.00;;;4.14;;
7169;SDS011;3626;42.656;23.312;2023-03-03T00:31:35;6.66;;;4.09;;
7169;SDS011;3626;42.656;23.312;2023-03-03T00:31:41;6.88;;;4.20;;
7169;SDS011;3626;42.656;23.312;2023-03-03T00:31:47;6.88;;;4.15;;
7169;SDS011;3626;42.656;23.312;2023-03-03T00:31:53;6.78;;;4.15;;
7169;SDS011;3626;42.656;23.312;2023-03-03T00:32:08;7.13;;;4.20;;
7169;SDS011;3626;42.656;23.312;2023-03-03T00:32:23;6.96;;;4.25;;
7169;SDS011;3626;42.656;23.312;2023-03-03T00:32:41;7.40;;;4.43;;
7169;SDS011;3626;42.656;23.312;2023-03-03T00:32:51;6.89;;;4.32;;
7169;SDS011;3626;42.656;23.312;2023-03-03T00:32:59;6.70;;;4.40;;
7169;SDS011;3626;42.656;23.312;2023-03-03T00:33:06;6.60;;;4.32;;
7169;SDS011;3626;42.656;23.312;2023-03-03T00:33:30;6.74;;;4.18;;
7169;SDS011;3626;42.656;23.312;2023-03-03T00:33:40;6.37;;;3.87;;
7169;SDS011;3626;42.656;23.312;2023-03-03T00:33:50;6.89;;;4.04;;
7169;SDS011;3626;42.656;23.312;2023-03-03T00:34:00;6.84;;;4.07;;
7169;SDS011;3626;42.656;23.312;2023-03-03T00:34:24;6.89;;;4.05;;
7169;SDS011;3626;42.656;23.312;2023-03-03T00:34:30;6.66;;;4.22;;
7169;SDS011;3626;42.656;23.312;2023-03-03T00:34:38;7.04;;;4.30;;
7169;SDS011;3626;42.656;23.312;2023-03-03T00:34:45;6.90;;;4.20;;
7169;SDS011;3626;42.656;23.312;2023-03-03T00:34:54;6.70;;;4.13;;
7169;SDS011;3626;42.656;23.312;2023-03-03T00:35:16;6.89;;;4.28;;
7169;SDS011;3626;42.656;23.312;2023-03-03T00:35:28;6.89;;;4.30;;
7169;SDS011;3626;42.656;23.312;2023-03-03T00:35:39;6.93;;;4.37;;
7169;SDS011;3626;42.656;23.312;2023-03-03T00:35:47;7.10;;;4.38;;
7169;SDS011;3626;42.656;23.312;2023-03-03T00:35:53;7.65;;;4.50;;
7169;SDS011;3626;42.656;23.312;2023-03-03T00:36:08;7.48;;;4.50;;
7169;SDS011;3626;42.656;23.312;2023-03-03T00:36:29;7.57;;;4.53;;
7169;SDS011;3626;42.656;23.312;2023-03-03T00:36:40;7.43;;;4.26;;
7169;SDS011;3626;42.656;23.312;2023-03-03T00:36:46;6.96;;;4.08;;
7169;SDS011;3626;42.656;23.312;2023-03-03T00:36:56;7.33;;;3.90;;
7169;SDS011;3626;42.656;23.312;2023-03-03T00:37:02;7.28;;;3.78;;
7169;SDS011;3626;42.656;23.312;2023-03-03T00:37:25;6.79;;;3.60;;
7169;SDS011;3626;42.656;23.312;2023-03-03T00:37:33;6.26;;;3.57;;
7169;SDS011;3626;42.656;23.312;2023-03-03T00:37:39;6.70;;;3.80;;
7169;SDS011;3626;42.656;23.312;2023-03-03T00:37:45;6.78;;;3.80;;
7169;SDS011;3626;42.656;23.312;2023-03-03T00:37:53;5.93;;;3.80;;
7169;SDS011;3626;42.656;23.312;2023-03-03T00:38:01;6.73;;;3.80;;
7169;SDS011;3626;42.656;23.312;2023-03-03T00:38:17;7.14;;;4.09;;
7169;SDS011;3626;42.656;23.312;2023-03-03T00:38:23;7.78;;;4.32;;
7169;SDS011;3626;42.656;23.312;2023-03-03T00:38:31;7.73;;;4.30;;
7169;SDS011;3626;42.656;23.312;2023-03-03T00:38:39;7.72;;;4.27;;
7169;SDS011;3626;42.656;23.312;2023-03-03T00:38:47;7.68;;;4.30;;
7169;SDS011;3626;42.656;23.312;2023-03-03T00:38:53;7.58;;;4.30;;
7169;SDS011;3626;42.656;23.312;2023-03-03T00:39:10;7.16;;;4.48;;
7169;SDS011;3626;42.656;23.312;2023-03-03T00:39:35;7.49;;;4.31;;
7169;SDS011;3626;42.656;23.312;2023-03-03T00:39:43;7.17;;;4.16;;
7169;SDS011;3626;42.656;23.312;2023-03-03T00:39:49;7.28;;;4.18;;
7169;SDS011;3626;42.656;23.312;2023-03-03T00:39:59;7.47;;;4.13;;
7169;SDS011;3626;42.656;23.312;2023-03-03T00:40:19;7.13;;;4.14;;
7169;SDS011;3626;42.656;23.312;2023-03-03T00:40:30;7.22;;;4.18;;
7169;SDS011;3626;42.656;23.312;2023-03-03T00:40:39;7.40;;;4.20;;
7169;SDS011;3626;42.656;23.312;2023-03-03T00:40:46;6.70;;;4.02;;
7169;SDS011;3626;42.656;23.312;2023-03-03T00:40:52;6.25;;;4.00;;
7169;SDS011;3626;42.656;23.312;2023-03-03T00:40:58;6.22;;;4.00;;
7169;SDS011;3626;42.656;23.312;2023-03-03T00:41:09;6.53;;;4.05;;
7169;SDS011;3626;42.656;23.312;2023-03-03T00:41:22;6.47;;;4.09;;
7169;SDS011;3626;42.656;23.312;2023-03-03T00:41:30;6.26;;;4.04;;
7169;SDS011;3626;42.656;23.312;2023-03-03T00:41:37;6.67;;;4.20;;
7169;SDS011;3626;42.656;23.312;2023-03-03T00:41:44;6.68;;;4.20;;
7169;SDS011;3626;42.656;23.312;2023-03-03T00:41:50;7.18;;;4.40;;
7169;SDS011;3626;42.656;23.312;2023-03-03T00:41:56;7.22;;;4.43;;
7169;SDS011;3626;42.656;23.312;2023-03-03T00:42:04;6.90;;;4.40;;
7169;SDS011;3626;42.656;23.312;2023-03-03T00:42:18;6.60;;;4.29;;
7169;SDS011;3626;42.656;23.312;2023-03-03T00:42:25;6.57;;;4.30;;
7169;SDS011;3626;42.656;23.312;2023-03-03T00:42:31;6.55;;;4.32;;
7169;SDS011;3626;42.656;23.312;2023-03-03T00:42:42;6.67;;;4.30;;
7169;SDS011;3626;42.656;23.312;2023-03-03T00:42:52;6.51;;;4.40;;
7169;SDS011;3626;42.656;23.312;2023-03-03T00:43:00;6.97;;;4.60;;
7169;SDS011;3626;42.656;23.312;2023-03-03T00:43:17;7.19;;;4.72;;
7169;SDS011;3626;42.656;23.312;2023-03-03T00:43:25;7.67;;;4.90;;
7169;SDS011;3626;42.656;23.312;2023-03-03T00:43:38;7.64;;;4.90;;
7169;SDS011;3626;42.656;23.312;2023-03-03T00:43:45;7.77;;;4.83;;
7169;SDS011;3626;42.656;23.312;2023-03-03T00:43:51;7.93;;;4.85;;
7169;SDS011;3626;42.656;23.312;2023-03-03T00:44:01;8.47;;;4.70;;
7169;SDS011;3626;42.656;23.312;2023-03-03T00:44:44;7.70;;;4.54;;
7169;SDS011;3626;42.656;23.312;2023-03-03T00:44:54;6.60;;;4.10;;
7169;SDS011;3626;42.656;23.312;2023-03-03T00:45:04;5.91;;;4.08;;
7169;SDS011;3626;42.656;23.312;2023-03-03T00:45:30;6.25;;;4.13;;
7169;SDS011;3626;42.656;23.312;2023-03-03T00:45:47;6.95;;;4.39;;
7169;SDS011;3626;42.656;23.312;2023-03-03T00:45:55;8.30;;;5.03;;
7169;SDS011;3626;42.656;23.312;2023-03-03T00:46:01;8.36;;;5.20;;
7169;SDS011;3626;42.656;23.312;2023-03-03T00:46:07;8.30;;;5.20;;
7169;SDS011;3626;42.656;23.312;2023-03-03T00:46:14;8.30;;;5.20;;
7169;SDS011;3626;42.656;23.312;2023-03-03T00:46:23;8.17;;;5.37;;
7169;SDS011;3626;42.656;23.312;2023-03-03T00:46:29;8.97;;;5.30;;
7169;SDS011;3626;42.656;23.312;2023-03-03T00:46:35;9.30;;;5.38;;
7169;SDS011;3626;42.656;23.312;2023-03-03T00:46:41;9.52;;;5.40;;
7169;SDS011;3626;42.656;23.312;2023-03-03T00:46:47;9.00;;;5.25;;
7169;SDS011;3626;42.656;23.312;2023-03-03T00:46:53;8.80;;;5.00;;
7169;SDS011;3626;42.656;23.312;2023-03-03T00:47:01;8.60;;;4.80;;
7169;SDS011;3626;42.656;23.312;2023-03-03T00:47:37;8.13;;;4.72;;
7169;SDS011;3626;42.656;23.312;2023-03-03T00:47:47;7.43;;;4.54;;
7169;SDS011;3626;42.656;23.312;2023-03-03T00:47:53;7.32;;;4.50;;
7169;SDS011;3626;42.656;23.312;2023-03-03T00:48:01;6.93;;;4.30;;
7169;SDS011;3626;42.656;23.312;2023-03-03T00:48:23;6.65;;;4.11;;
7169;SDS011;3626;42.656;23.312;2023-03-03T00:48:38;6.23;;;3.73;;
7169;SDS011;3626;42.656;23.312;2023-03-03T00:48:48;6.24;;;3.74;;
7169;SDS011;3626;42.656;23.312;2023-03-03T00:48:55;6.45;;;3.90;;
7169;SDS011;3626;42.656;23.312;2023-03-03T00:49:01;6.63;;;4.00;;
7169;SDS011;3626;42.656;23.312;2023-03-03T00:49:21;6.70;;;4.06;;
7169;SDS011;3626;42.656;23.312;2023-03-03T00:49:30;6.86;;;4.25;;
7169;SDS011;3626;42.656;23.312;2023-03-03T00:49:37;7.57;;;4.35;;
7169;SDS011;3626;42.656;23.312;2023-03-03T00:49:43;7.56;;;4.40;;
7169;SDS011;3626;42.656;23.312;2023-03-03T00:49:49;7.00;;;4.23;;
7169;SDS011;3626;42.656;23.312;2023-03-03T00:49:59;6.93;;;4.22;;
7169;SDS011;3626;42.656;23.312;2023-03-03T00:50:33;7.29;;;4.57;;
7169;SDS011;3626;42.656;23.312;2023-03-03T00:50:40;8.05;;;5.00;;
7169;SDS011;3626;42.656;23.312;2023-03-03T00:50:48;8.10;;;4.90;;
7169;SDS011;3626;42.656;23.312;2023-03-03T00:50:55;8.10;;;4.93;;
7169;SDS011;3626;42.656;23.312;2023-03-03T00:51:07;7.90;;;4.80;;
7169;SDS011;3626;42.656;23.312;2023-03-03T00:51:25;7.69;;;4.69;;
7169;SDS011;3626;42.656;23.312;2023-03-03T00:51:34;7.41;;;4.66;;
7169;SDS011;3626;42.656;23.312;2023-03-03T00:51:41;7.12;;;4.66;;
7169;SDS011;3626;42.656;23.312;2023-03-03T00:51:48;7.87;;;4.90;;
7169;SDS011;3626;42.656;23.312;2023-03-03T00:51:54;8.23;;;5.00;;
7169;SDS011;3626;42.656;23.312;2023-03-03T00:52:00;8.65;;;5.00;;
7169;SDS011;3626;42.656;23.312;2023-03-03T00:52:09;8.68;;;5.05;;
7169;SDS011;3626;42.656;23.312;2023-03-03T00:52:18;8.50;;;5.00;;
7169;SDS011;3626;42.656;23.312;2023-03-03T00:52:26;8.40;;;4.97;;
7169;SDS011;3626;42.656;23.312;2023-03-03T00:52:33;8.18;;;4.88;;
7169;SDS011;3626;42.656;23.312;2023-03-03T00:52:43;8.10;;;4.77;;
7169;SDS011;3626;42.656;23.312;2023-03-03T00:52:58;7.60;;;4.70;;
7169;SDS011;3626;42.656;23.312;2023-03-03T00:53:09;7.69;;;4.78;;
7169;SDS011;3626;42.656;23.312;2023-03-03T00:53:21;7.41;;;4.63;;
7169;SDS011;3626;42.656;23.312;2023-03-03T00:53:29;7.27;;;4.50;;
7169;SDS011;3626;42.656;23.312;2023-03-03T00:53:35;7.43;;;4.60;;
7169;SDS011;3626;42.656;23.312;2023-03-03T00:53:40;7.55;;;4.55;;
7169;SDS011;3626;42.656;23.312;2023-03-03T00:53:46;7.85;;;4.72;;
7169;SDS011;3626;42.656;23.312;2023-03-03T00:53:52;8.20;;;4.80;;
7169;SDS011;3626;42.656;23.312;2023-03-03T00:53:58;7.60;;;4.70;;
7169;SDS011;3626;42.656;23.312;2023-03-03T00:54:04;7.60;;;4.63;;
7169;SDS011;3626;42.656;23.312;2023-03-03T00:54:10;7.65;;;4.65;;
7169;SDS011;3626;42.656;23.312;2023-03-03T00:54:16;8.00;;;4.70;;
7169;SDS011;3626;42.656;23.312;2023-03-03T00:54:22;8.50;;;4.80;;
7169;SDS011;3626;42.656;23.312;2023-03-03T00:54:31;8.50;;;4.93;;
7169;SDS011;3626;42.656;23.312;2023-03-03T00:54:39;8.66;;;5.04;;
7169;SDS011;3626;42.656;23.312;2023-03-03T00:54:45;8.23;;;4.88;;
7169;SDS011;3626;42.656;23.312;2023-03-03T00:54:51;8.18;;;4.80;;
7169;SDS011;3626;42.656;23.312;2023-03-03T00:54:58;8.17;;;4.87;;
7169;SDS011;3626;42.656;23.312;2023-03-03T00:55:04;7.97;;;4.80;;
7169;SDS011;3626;42.656;23.312;2023-03-03T00:55:11;7.94;;;4.74;;
7169;SDS011;3626;42.656;23.312;2023-03-03T00:55:18;7.77;;;4.80;;
7169;SDS011;3626;42.656;23.312;2023-03-03T00:55:24;7.95;;;4.80;;
7169;SDS011;3626;42.656;23.312;2023-03-03T00:55:30;7.87;;;4.67;;
7169;SDS011;3626;42.656;23.312;2023-03-03T00:55:36;7.27;;;4.37;;
7169;SDS011;3626;42.656;23.312;2023-03-03T00:55:42;7.20;;;4.30;;
7169;SDS011;3626;42.656;23.312;2023-03-03T00:55:49;7.37;;;4.30;;
7169;SDS011;3626;42.656;23.312;2023-03-03T00:55:56;7.48;;;4.40;;